»·PEaware :: N799DS KLGB-KVNY

N799DS :: KLGB-KVNY

FLIGHT INFORMATION

Flight Status: Arrived
Operator: Privately registered:
United States
More flights under this callsign
Pilot: Wolfgang B. (15069)
Aircraft: CESSNA 172 SKYHAWK
(C172)
More flights by this aircraft type
Origin: KLGB Long Beach
United States
Destination: KVNY Van Nuys
United States
More flights between these airports :: More routes between these airports
Route: SLI V23 POPPR SMO125 SMO SMO317 CANOG
File this flight plan on PilotEdge
Remarks:
Altitude:
(Current/Filed)
4,000ft
Speed:
(Current/Filed)
120kts
Departed: 17-Mar-20 02:01 PM
Arrived: 17-Mar-20 02:39 PM
Distance/Time
Traveled:
29nm/0:38
Distance/Time
To Go:
Arrived

Flight Plot

Page will automatically refresh every two minutes.


Map Options




Map Legend


Flown Route
Filed Route
Departure Airport
Arrival Airport
Navaid (VOR, NDB)
Fix

Horizontal Profiles

Position Reports

Time Latitude Longitude Heading Altitude Ground
Speed
17-Mar-20 13:34 33.812657 -118.158798 270 50ft 0kts
17-Mar-20 13:35 33.812657 -118.158798 270 50ft 0kts
17-Mar-20 13:36 33.812657 -118.158798 270 50ft 0kts
17-Mar-20 13:37 33.812657 -118.158798 270 50ft 0kts
17-Mar-20 13:38 33.812657 -118.158798 270 50ft 0kts
17-Mar-20 13:39 33.812657 -118.158798 270 50ft 0kts
17-Mar-20 13:40 33.812657 -118.158798 270 50ft 0kts
17-Mar-20 13:41 33.812657 -118.158798 270 50ft 0kts
17-Mar-20 13:42 33.812657 -118.158798 269 50ft 0kts
17-Mar-20 13:43 33.812657 -118.158798 269 50ft 0kts
17-Mar-20 13:44 33.812657 -118.158798 269 50ft 0kts
17-Mar-20 13:45 33.812657 -118.158798 269 50ft 0kts
17-Mar-20 13:46 33.812657 -118.158798 269 50ft 0kts
17-Mar-20 13:47 33.812657 -118.158798 269 50ft 0kts
17-Mar-20 13:48 33.812657 -118.158798 269 50ft 0kts
17-Mar-20 13:49 33.812657 -118.158798 269 50ft 0kts
17-Mar-20 13:50 33.812657 -118.158798 269 50ft 0kts
17-Mar-20 13:51 33.812657 -118.158798 269 50ft 0kts
17-Mar-20 13:52 33.812657 -118.158798 269 50ft 0kts
17-Mar-20 13:53 33.813087 -118.157823 90 49ft 16kts
17-Mar-20 13:54 33.813089 -118.151182 88 39ft 23kts
17-Mar-20 13:55 33.812912 -118.147596 340 35ft 5kts
17-Mar-20 13:56 33.813106 -118.148023 257 36ft 0kts
17-Mar-20 13:57 33.813448 -118.148813 345 37ft 0kts
17-Mar-20 13:58 33.813448 -118.148813 345 37ft 0kts
17-Mar-20 13:59 33.813930 -118.149224 267 37ft 9kts
17-Mar-20 14:00 33.813366 -118.161832 262 370ft 72kts
17-Mar-20 14:01 33.812715 -118.187309 285 940ft 107kts
17-Mar-20 14:02 33.817129 -118.213847 281 1991ft 70kts
17-Mar-20 14:03 33.821361 -118.234716 281 2732ft 72kts
17-Mar-20 14:04 33.828855 -118.256266 291 3481ft 73kts
17-Mar-20 14:05 33.838309 -118.278558 292 4013ft 97kts
17-Mar-20 14:07 33.859446 -118.305098 316 4016ft 124kts
17-Mar-20 14:08 33.884365 -118.330146 316 4018ft 125kts
17-Mar-20 14:09 33.909127 -118.355008 316 4018ft 125kts
17-Mar-20 14:10 33.932908 -118.378905 316 4017ft 125kts
17-Mar-20 14:11 33.956528 -118.402655 316 4015ft 124kts
17-Mar-20 14:12 33.981443 -118.427726 316 4014ft 124kts
17-Mar-20 14:13 34.007887 -118.454190 321 4012ft 124kts
17-Mar-20 14:14 34.041233 -118.476643 328 4013ft 126kts
17-Mar-20 14:15 34.072694 -118.496843 327 4392ft 95kts
17-Mar-20 14:16 34.094559 -118.511153 327 5030ft 110kts
17-Mar-20 14:17 34.125055 -118.531188 328 5020ft 132kts
17-Mar-20 14:18 34.158904 -118.552540 331 5018ft 138kts
17-Mar-20 14:19 34.192859 -118.574414 332 5015ft 139kts
17-Mar-20 14:20 34.227662 -118.589532 348 5012ft 127kts
17-Mar-20 14:21 34.260791 -118.594490 352 5008ft 116kts
17-Mar-20 14:22 34.292797 -118.598892 352 5008ft 115kts
17-Mar-20 14:23 34.324670 -118.603198 352 5008ft 115kts
17-Mar-20 14:24 34.357479 -118.607599 352 5008ft 120kts
17-Mar-20 14:25 34.390967 -118.612038 352 5008ft 121kts
17-Mar-20 14:26 34.424502 -118.616374 352 5012ft 121kts
17-Mar-20 14:26 34.452419 -118.619802 352 5018ft 121kts
17-Mar-20 14:28 34.472270 -118.589608 91 5026ft 131kts
17-Mar-20 14:28 34.470121 -118.552649 91 5028ft 131kts
17-Mar-20 14:29 34.467396 -118.508611 99 5025ft 130kts
17-Mar-20 14:31 34.431494 -118.505153 195 5024ft 127kts
17-Mar-20 14:31 34.401994 -118.507682 180 5017ft 124kts
17-Mar-20 14:32 34.369753 -118.505454 177 4731ft 113kts
17-Mar-20 14:33 34.338423 -118.502567 176 3983ft 113kts
17-Mar-20 14:34 34.306887 -118.499580 175 3190ft 114kts
17-Mar-20 14:35 34.276064 -118.496658 175 2405ft 110kts
17-Mar-20 14:36 34.246472 -118.493861 174 1651ft 100kts
17-Mar-20 14:38 34.220684 -118.491406 175 1003ft 70kts
17-Mar-20 14:38 34.207820 -118.490188 178 806ft 34kts
17-Mar-20 14:39 34.206625 -118.491304 331 806ft 6kts
17-Mar-20 14:40 34.211107 -118.491670 355 806ft 25kts
17-Mar-20 14:41 34.216840 -118.493196 283 806ft 18kts
17-Mar-20 14:42 34.217319 -118.493000 86 806ft 0kts
17-Mar-20 14:43 34.217319 -118.493000 86 806ft 0kts
17-Mar-20 14:44 34.217319 -118.493000 86 806ft 0kts
17-Mar-20 14:45 34.217319 -118.493000 86 806ft 0kts
17-Mar-20 14:46 34.217319 -118.493000 86 806ft 0kts

Navigation Log

Ident Type
Flight plan parsing failed, navigation log unavailable